createdAt,value
2022-11-05T00:00:21.619Z,5.97
2022-11-05T00:03:07.496Z,12.88
2022-11-05T00:05:57.877Z,10.30
2022-11-05T00:08:43.574Z,10.07
2022-11-05T00:11:17.689Z,8.15
2022-11-05T00:14:04.149Z,15.60
2022-11-05T00:16:43.895Z,9.38
2022-11-05T00:19:10.954Z,15.38
2022-11-05T00:21:58.001Z,22.60
2022-11-05T00:24:44.754Z,20.48
2022-11-05T00:27:12.770Z,16.40
2022-11-05T00:29:40.134Z,12.20
2022-11-05T00:32:07.214Z,18.15
2022-11-05T00:34:34.666Z,17.08
2022-11-05T00:37:02.325Z,9.15
2022-11-05T00:39:29.704Z,14.50
2022-11-05T00:42:15.286Z,8.95
2022-11-05T00:45:00.919Z,9.70
2022-11-05T00:47:47.225Z,7.18
2022-11-05T00:50:14.876Z,11.52
2022-11-05T00:52:57.977Z,11.30
2022-11-05T00:55:25.176Z,12.13
2022-11-05T00:57:52.929Z,15.82
2022-11-05T01:00:20.391Z,9.45
2022-11-05T01:02:48.133Z,10.77
2022-11-05T01:05:15.699Z,5.82
2022-11-05T01:07:42.852Z,11.48
2022-11-05T01:10:10.306Z,8.02
2022-11-05T01:12:37.970Z,6.50
2022-11-05T01:15:05.322Z,10.98
2022-11-05T01:17:32.884Z,7.22
2022-11-05T01:20:00.370Z,10.10
2022-11-05T01:22:27.497Z,9.32
2022-11-05T01:24:55.325Z,8.45
2022-11-05T01:27:22.534Z,10.73
2022-11-05T01:29:50.473Z,21.73
2022-11-05T01:32:17.970Z,7.40
2022-11-05T01:34:45.079Z,15.45
2022-11-05T01:37:13.875Z,9.85
2022-11-05T01:39:41.338Z,17.35
2022-11-05T01:42:15.870Z,35.63
2022-11-05T01:45:00.106Z,30.15
2022-11-05T01:47:29.984Z,47.33
2022-11-05T01:50:01.749Z,7.00
2022-11-05T01:52:31.491Z,12.45
2022-11-05T01:54:59.539Z,10.70
2022-11-05T01:57:27.953Z,7.55
2022-11-05T01:59:57.303Z,8.95
2022-11-05T02:02:25.458Z,6.95
2022-11-05T02:04:55.850Z,6.85
2022-11-05T02:07:24.454Z,12.73
2022-11-05T02:09:54.469Z,8.25
2022-11-05T02:12:22.204Z,8.30
2022-11-05T02:14:52.109Z,11.13
2022-11-05T02:17:19.476Z,14.15
2022-11-05T02:19:46.824Z,10.50
2022-11-05T02:22:26.466Z,8.40
2022-11-05T02:25:12.530Z,9.73
2022-11-05T02:27:42.921Z,9.52
2022-11-05T02:30:25.617Z,18.33
2022-11-05T02:32:58.972Z,12.18
2022-11-05T02:35:26.393Z,10.35
2022-11-05T02:37:54.989Z,13.82
2022-11-05T02:40:31.926Z,7.40
2022-11-05T02:43:16.208Z,19.75
2022-11-05T02:45:52.944Z,13.23
2022-11-05T02:48:22.841Z,18.02
2022-11-05T02:50:53.951Z,11.40
2022-11-05T02:53:28.115Z,19.00
2022-11-05T02:56:02.025Z,13.95
2022-11-05T02:58:32.763Z,15.98
2022-11-05T03:01:02.063Z,10.10
2022-11-05T03:03:37.676Z,10.43
2022-11-05T03:06:25.036Z,12.05
2022-11-05T03:09:11.097Z,14.15
2022-11-05T03:11:47.924Z,13.82
2022-11-05T03:14:18.215Z,18.30
2022-11-05T03:17:00.977Z,18.00
2022-11-05T03:19:28.376Z,15.67
2022-11-05T03:22:01.737Z,13.32
2022-11-05T03:24:36.074Z,27.48
2022-11-05T03:27:05.464Z,12.30
2022-11-05T03:29:42.321Z,17.17
2022-11-05T03:32:10.783Z,26.17
2022-11-05T03:34:40.793Z,27.75
2022-11-05T03:37:08.878Z,23.50
2022-11-05T03:39:41.892Z,21.48
2022-11-05T03:42:11.129Z,27.70
2022-11-05T03:44:40.213Z,26.48
2022-11-05T03:47:09.862Z,16.52
2022-11-05T03:49:40.277Z,18.77
2022-11-05T03:52:09.289Z,19.70
2022-11-05T03:54:37.088Z,18.17
2022-11-05T03:57:04.093Z,18.60
2022-11-05T03:59:32.492Z,23.17
2022-11-05T04:02:00.013Z,27.95
2022-11-05T04:04:27.277Z,25.60
2022-11-05T04:07:12.850Z,31.08
2022-11-05T04:09:58.804Z,23.00
2022-11-05T04:12:44.859Z,41.28
2022-11-05T04:15:12.541Z,26.20
2022-11-05T04:17:40.355Z,20.20
2022-11-05T04:20:26.266Z,30.77
2022-11-05T04:23:38.896Z,19.70
2022-11-05T04:26:06.100Z,25.60
2022-11-05T04:28:53.792Z,27.60
2022-11-05T04:31:20.954Z,20.83
2022-11-05T04:33:47.991Z,21.10
2022-11-05T04:36:15.089Z,24.95
2022-11-05T04:38:42.128Z,28.77
2022-11-05T04:41:14.444Z,26.08
2022-11-05T04:43:41.763Z,38.72
2022-11-05T04:46:09.171Z,29.42
2022-11-05T04:48:36.470Z,21.63
2022-11-05T04:51:04.164Z,17.55
2022-11-05T04:53:31.627Z,18.20
2022-11-05T04:56:11.322Z,17.52
2022-11-05T04:58:44.431Z,26.98
2022-11-05T05:01:19.120Z,20.42
2022-11-05T05:03:50.472Z,20.15
2022-11-05T05:06:17.927Z,17.15
2022-11-05T05:08:45.550Z,21.08
2022-11-05T05:11:13.926Z,16.25
2022-11-05T05:13:41.113Z,17.55
2022-11-05T05:16:09.015Z,17.50
2022-11-05T05:18:37.521Z,16.85
2022-11-05T05:21:24.649Z,18.17
2022-11-05T05:23:51.658Z,22.52
2022-11-05T05:26:21.027Z,21.30
2022-11-05T05:28:48.381Z,20.20
2022-11-05T05:31:15.464Z,17.50
2022-11-05T05:33:43.176Z,28.10
2022-11-05T05:36:11.642Z,20.08
2022-11-05T05:38:38.850Z,12.52
2022-11-05T05:41:05.998Z,15.55
2022-11-05T05:43:33.814Z,22.83
2022-11-05T05:46:04.445Z,9.38
2022-11-05T05:48:31.907Z,11.45
2022-11-05T05:51:02.832Z,16.58
2022-11-05T05:53:30.808Z,15.27
2022-11-05T05:55:58.217Z,12.50
2022-11-05T05:58:29.207Z,10.30
2022-11-05T06:00:56.245Z,11.35
2022-11-05T06:03:23.574Z,13.15
2022-11-05T06:05:50.697Z,16.17
2022-11-05T06:08:17.799Z,26.73
2022-11-05T06:10:51.774Z,11.73
2022-11-05T06:13:20.680Z,11.90
2022-11-05T06:15:47.853Z,16.85
2022-11-05T06:18:15.292Z,11.52
2022-11-05T06:20:43.290Z,16.00
2022-11-05T06:23:11.212Z,21.33
2022-11-05T06:25:41.422Z,12.57
2022-11-05T06:28:08.902Z,12.32
2022-11-05T06:30:36.264Z,13.38
2022-11-05T06:33:06.817Z,12.85
2022-11-05T06:35:34.264Z,18.25
2022-11-05T06:38:01.941Z,14.02
2022-11-05T06:40:29.702Z,15.32
2022-11-05T06:42:56.856Z,15.10
2022-11-05T06:45:24.155Z,14.93
2022-11-05T06:47:58.007Z,20.67
2022-11-05T06:50:25.526Z,21.00
2022-11-05T06:52:56.016Z,19.38
2022-11-05T06:55:23.517Z,23.55
2022-11-05T06:57:51.230Z,24.00
2022-11-05T07:00:19.604Z,18.35
2022-11-05T07:02:47.348Z,22.08
2022-11-05T07:05:15.185Z,23.02
2022-11-05T07:07:43.101Z,18.08
2022-11-05T07:10:13.019Z,23.45
2022-11-05T07:12:40.554Z,18.02
2022-11-05T07:15:08.094Z,15.65
2022-11-05T07:17:35.496Z,23.23
2022-11-05T07:20:03.982Z,23.98
2022-11-05T07:22:31.086Z,26.55
2022-11-05T07:24:58.213Z,18.92
2022-11-05T07:27:26.459Z,19.00
2022-11-05T07:29:54.237Z,19.33
2022-11-05T07:32:21.768Z,18.33
2022-11-05T07:34:48.802Z,26.48
2022-11-05T07:37:20.886Z,23.13
2022-11-05T07:39:47.961Z,23.00
2022-11-05T07:42:15.250Z,24.70
2022-11-05T07:44:43.064Z,18.48
2022-11-05T07:47:10.519Z,24.90
2022-11-05T07:49:37.766Z,24.92
2022-11-05T07:52:05.130Z,21.92
2022-11-05T07:54:32.322Z,24.25
2022-11-05T07:56:59.930Z,23.30
2022-11-05T07:59:26.959Z,24.20
2022-11-05T08:01:54.368Z,21.83
2022-11-05T08:04:21.688Z,26.13
2022-11-05T08:06:49.185Z,28.48
2022-11-05T08:09:16.604Z,21.25
2022-11-05T08:11:43.854Z,22.20
2022-11-05T08:14:13.980Z,33.90
2022-11-05T08:16:41.879Z,20.50
2022-11-05T08:19:09.029Z,19.20
2022-11-05T08:21:36.079Z,32.42
2022-11-05T08:24:03.224Z,19.08
2022-11-05T08:26:30.650Z,18.98
2022-11-05T08:28:57.869Z,26.77
2022-11-05T08:31:24.986Z,24.77
2022-11-05T08:33:57.123Z,19.63
2022-11-05T08:36:27.005Z,22.88
2022-11-05T08:38:54.015Z,21.92
2022-11-05T08:41:23.943Z,20.10
2022-11-05T08:43:56.903Z,18.15
2022-11-05T08:46:26.780Z,21.40
2022-11-05T08:48:54.122Z,21.52
2022-11-05T08:51:21.309Z,15.40
2022-11-05T08:53:49.595Z,15.77
2022-11-05T08:56:16.730Z,20.25
2022-11-05T08:58:43.810Z,15.10
2022-11-05T09:01:10.901Z,16.67
2022-11-05T09:03:41.050Z,11.85
2022-11-05T09:06:08.709Z,16.52
2022-11-05T09:08:35.782Z,14.90
2022-11-05T09:11:02.776Z,13.52
2022-11-05T09:13:29.841Z,14.98
2022-11-05T09:15:59.842Z,16.63
2022-11-05T09:18:26.994Z,17.55
2022-11-05T09:20:54.376Z,15.40
2022-11-05T09:23:22.451Z,12.88
2022-11-05T09:25:50.031Z,13.68
2022-11-05T09:28:22.894Z,13.20
2022-11-05T09:30:51.155Z,11.75
2022-11-05T09:33:22.856Z,12.57
2022-11-05T09:35:53.758Z,16.05
2022-11-05T09:38:21.120Z,9.88
2022-11-05T09:40:54.926Z,12.50
2022-11-05T09:43:31.261Z,12.52
2022-11-05T09:46:01.322Z,12.70
2022-11-05T09:48:30.513Z,13.18
2022-11-05T09:50:58.763Z,11.93
2022-11-05T09:53:26.359Z,9.05
2022-11-05T09:55:57.906Z,19.35
2022-11-05T09:58:43.790Z,10.38
2022-11-05T10:01:22.113Z,8.43
2022-11-05T10:03:50.943Z,12.02
2022-11-05T10:06:22.479Z,18.10
2022-11-05T10:08:55.423Z,14.95
2022-11-05T10:11:25.902Z,11.23
2022-11-05T10:13:55.264Z,9.38
2022-11-05T10:16:34.419Z,11.95
2022-11-05T10:19:09.867Z,9.68
2022-11-05T10:24:28.214Z,11.35
2022-11-05T10:26:56.774Z,10.38
2022-11-05T10:29:29.682Z,8.02
2022-11-05T10:32:01.561Z,9.05
2022-11-05T10:34:31.954Z,8.85
2022-11-05T10:36:59.871Z,9.77
2022-11-05T10:39:30.429Z,9.23
2022-11-05T10:42:16.668Z,10.55
2022-11-05T10:45:03.759Z,7.20
2022-11-05T10:47:43.009Z,9.00
2022-11-05T10:50:16.712Z,9.88
2022-11-05T10:52:54.886Z,9.63
2022-11-05T10:55:22.071Z,7.38
2022-11-05T10:57:52.606Z,9.48
2022-11-05T11:00:22.516Z,8.18
2022-11-05T11:02:55.538Z,9.45
2022-11-05T11:05:25.054Z,8.55
2022-11-05T11:08:06.807Z,8.30
2022-11-05T11:10:37.885Z,7.47
2022-11-05T11:13:05.610Z,10.55
2022-11-05T11:15:32.853Z,11.18
2022-11-05T11:18:18.647Z,8.70
2022-11-05T11:20:46.719Z,10.98
2022-11-05T11:23:15.832Z,7.22
2022-11-05T11:25:54.430Z,10.80
2022-11-05T11:28:33.370Z,8.02
2022-11-05T11:31:06.974Z,7.32
2022-11-05T11:33:34.928Z,12.82
2022-11-05T11:36:05.822Z,9.77
2022-11-05T11:38:34.615Z,6.22
2022-11-05T11:41:04.472Z,8.35
2022-11-05T11:43:35.969Z,7.85
2022-11-05T11:46:09.920Z,7.93
2022-11-05T11:48:41.482Z,6.30
2022-11-05T11:51:19.869Z,8.82
2022-11-05T11:53:48.776Z,11.10
2022-11-05T11:56:17.986Z,12.23
2022-11-05T11:58:51.969Z,7.75
2022-11-05T12:01:37.925Z,11.48
2022-11-05T12:04:28.392Z,10.88
2022-11-05T12:07:14.330Z,11.07
2022-11-05T12:09:54.094Z,8.73
2022-11-05T12:12:26.739Z,9.27
2022-11-05T12:15:00.627Z,10.70
2022-11-05T12:17:45.893Z,10.15
2022-11-05T12:20:32.661Z,15.27
2022-11-05T12:22:59.902Z,8.40
2022-11-05T12:25:27.321Z,8.95
2022-11-05T12:28:00.320Z,11.55
2022-11-05T12:30:30.831Z,10.88
2022-11-05T12:33:11.310Z,14.82
2022-11-05T12:35:50.003Z,7.78
2022-11-05T12:38:27.347Z,8.65
2022-11-05T12:40:57.412Z,7.97
2022-11-05T12:43:24.695Z,10.32
2022-11-05T12:46:10.745Z,7.15
2022-11-05T12:48:40.851Z,8.27
2022-11-05T12:51:10.819Z,14.90
2022-11-05T12:53:56.275Z,7.97
2022-11-05T12:56:30.578Z,9.48
2022-11-05T12:59:01.937Z,7.32
2022-11-05T13:01:35.706Z,11.68
2022-11-05T13:04:08.853Z,7.25
2022-11-05T13:06:42.444Z,11.18
2022-11-05T13:09:12.995Z,7.82
2022-11-05T13:11:47.793Z,11.15
2022-11-05T13:14:14.952Z,9.15
2022-11-05T13:16:45.208Z,7.18
2022-11-05T13:19:21.410Z,9.88
2022-11-05T13:21:51.769Z,6.43
2022-11-05T13:24:22.653Z,8.65
2022-11-05T13:27:01.940Z,6.38
2022-11-05T13:29:37.824Z,8.48
2022-11-05T13:32:28.031Z,5.97
2022-11-05T13:35:03.549Z,7.50
2022-11-05T13:37:51.983Z,9.10
2022-11-05T13:40:22.646Z,8.95
2022-11-05T13:43:02.746Z,11.95
2022-11-05T13:45:48.752Z,11.13
2022-11-05T13:48:34.950Z,10.27
2022-11-05T13:51:11.732Z,6.68
2022-11-05T13:53:57.367Z,13.25
2022-11-05T13:56:33.321Z,9.75
2022-11-05T13:59:16.243Z,8.90
2022-11-05T14:01:55.993Z,7.57
2022-11-05T14:05:00.789Z,6.65
2022-11-05T14:07:31.082Z,8.18
2022-11-05T14:10:02.389Z,8.32
2022-11-05T14:12:31.921Z,7.95
2022-11-05T14:15:05.870Z,8.23
2022-11-05T14:17:34.640Z,8.90
2022-11-05T14:20:21.882Z,9.55
2022-11-05T14:22:52.291Z,6.97
2022-11-05T14:25:21.047Z,6.50
2022-11-05T14:27:54.628Z,11.75
2022-11-05T14:30:41.573Z,14.02
2022-11-05T14:33:15.185Z,10.00
2022-11-05T14:35:45.096Z,5.63
2022-11-05T14:38:21.055Z,7.50
2022-11-05T14:40:49.143Z,10.50
2022-11-05T14:43:21.472Z,8.43
2022-11-05T14:46:02.773Z,8.82
2022-11-05T14:48:32.419Z,9.05
2022-11-05T14:50:59.915Z,8.65
2022-11-05T14:53:35.415Z,7.88
2022-11-05T14:56:03.066Z,8.02
2022-11-05T14:58:32.366Z,7.90
2022-11-05T15:01:00.872Z,9.95
2022-11-05T15:03:30.406Z,11.25
2022-11-05T15:06:17.510Z,10.35
2022-11-05T15:08:50.901Z,6.03
2022-11-05T15:11:20.954Z,5.95
2022-11-05T15:13:54.305Z,8.40
2022-11-05T15:18:48.786Z,5.88
2022-11-05T15:21:17.569Z,10.70
2022-11-05T15:23:45.852Z,7.28
2022-11-05T15:26:24.912Z,8.55
2022-11-05T15:28:53.226Z,6.53
2022-11-05T15:31:33.220Z,7.63
2022-11-05T15:34:19.751Z,9.07
2022-11-05T15:36:54.952Z,11.13
2022-11-05T15:39:32.289Z,7.70
2022-11-05T15:42:01.739Z,6.88
2022-11-05T15:44:30.746Z,6.78
2022-11-05T15:47:16.721Z,9.15
2022-11-05T15:49:45.154Z,11.75
2022-11-05T15:52:13.599Z,9.40
2022-11-05T15:54:41.457Z,9.40
2022-11-05T15:57:20.182Z,13.40
2022-11-05T15:59:47.713Z,11.85
2022-11-05T16:02:15.058Z,7.70
2022-11-05T16:04:47.472Z,9.35
2022-11-05T16:07:15.116Z,10.07
2022-11-05T16:09:46.676Z,9.43
2022-11-05T16:12:14.145Z,11.50
2022-11-05T16:14:42.934Z,9.95
2022-11-05T16:17:21.038Z,10.20
2022-11-05T16:19:52.184Z,6.70
2022-11-05T16:22:20.353Z,8.48
2022-11-05T16:24:48.785Z,8.02
2022-11-05T16:27:22.981Z,6.20
2022-11-05T16:29:52.173Z,6.63
2022-11-05T16:32:31.582Z,6.35
2022-11-05T16:35:03.459Z,10.38
2022-11-05T16:37:36.136Z,7.45
2022-11-05T16:40:03.955Z,8.43
2022-11-05T16:42:39.931Z,9.23
2022-11-05T16:45:08.327Z,10.05
2022-11-05T16:47:35.479Z,7.10
2022-11-05T16:50:03.566Z,8.38
2022-11-05T16:52:35.843Z,8.73
2022-11-05T16:55:07.889Z,7.68
2022-11-05T16:57:38.116Z,5.97
2022-11-05T17:00:06.191Z,7.90
2022-11-05T17:02:33.564Z,9.82
2022-11-05T17:05:00.668Z,6.60
2022-11-05T17:07:27.753Z,8.90
2022-11-05T17:09:56.016Z,11.32
2022-11-05T17:12:23.506Z,11.98
2022-11-05T17:14:53.298Z,9.45
2022-11-05T17:17:20.854Z,9.35
2022-11-05T17:19:50.768Z,8.02
2022-11-05T17:22:17.987Z,8.77
2022-11-05T17:24:45.235Z,12.07
2022-11-05T17:27:12.304Z,9.20
2022-11-05T17:29:40.075Z,12.95
2022-11-05T17:32:08.055Z,10.32
2022-11-05T17:34:35.095Z,12.55
2022-11-05T17:37:02.275Z,9.45
2022-11-05T17:39:31.750Z,8.07
2022-11-05T17:41:59.886Z,9.55
2022-11-05T17:44:27.107Z,8.82
2022-11-05T17:46:54.245Z,8.75
2022-11-05T17:49:27.523Z,9.02
2022-11-05T17:51:54.644Z,12.10
2022-11-05T17:54:21.763Z,9.40
2022-11-05T17:56:50.374Z,9.07
2022-11-05T17:59:19.547Z,10.15
2022-11-05T18:01:46.932Z,8.02
2022-11-05T18:04:14.709Z,10.18
2022-11-05T18:06:43.150Z,11.50
2022-11-05T18:09:12.005Z,10.57
2022-11-05T18:11:40.081Z,8.68
2022-11-05T18:14:08.137Z,11.10
2022-11-05T18:16:36.123Z,10.45
2022-11-05T18:19:04.046Z,9.93
2022-11-05T18:21:31.336Z,9.82
2022-11-05T18:23:58.715Z,9.80
2022-11-05T18:26:26.398Z,13.55
2022-11-05T18:28:53.938Z,17.10
2022-11-05T18:31:28.697Z,9.48
2022-11-05T18:33:57.225Z,11.23
2022-11-05T18:36:26.347Z,6.38
2022-11-05T18:38:53.847Z,9.93
2022-11-05T18:41:23.414Z,8.82
2022-11-05T18:43:54.228Z,8.23
2022-11-05T18:46:51.055Z,12.77
2022-11-05T18:49:11.296Z,8.77
2022-11-05T18:51:41.195Z,12.88
2022-11-05T18:54:08.642Z,10.85
2022-11-05T18:56:38.280Z,9.27
2022-11-05T18:59:35.107Z,10.07
2022-11-05T19:01:55.318Z,8.23
2022-11-05T19:04:22.463Z,11.50
2022-11-05T19:06:52.646Z,15.05
2022-11-05T19:09:20.678Z,14.95
2022-11-05T19:11:48.070Z,15.10
2022-11-05T19:14:15.317Z,16.92
2022-11-05T19:16:43.272Z,12.98
2022-11-05T19:19:10.563Z,9.07
2022-11-05T19:21:38.050Z,10.68
2022-11-05T19:24:08.231Z,9.68
2022-11-05T19:26:35.482Z,10.85
2022-11-05T19:29:03.270Z,13.15
2022-11-05T19:31:30.968Z,12.18
2022-11-05T19:33:58.387Z,12.45
2022-11-05T19:36:26.020Z,11.30
2022-11-05T19:39:00.432Z,8.40
2022-11-05T19:41:30.155Z,12.88
2022-11-05T19:44:01.678Z,12.10
2022-11-05T19:46:29.984Z,10.00
2022-11-05T19:48:57.456Z,9.05
2022-11-05T19:51:26.015Z,9.45
2022-11-05T19:53:54.005Z,8.52
2022-11-05T19:56:24.734Z,13.15
2022-11-05T19:58:53.124Z,14.85
2022-11-05T20:01:21.291Z,9.48
2022-11-05T20:03:50.653Z,15.13
2022-11-05T20:06:28.257Z,15.15
2022-11-05T20:09:20.530Z,9.90
2022-11-05T20:11:51.032Z,10.25
2022-11-05T20:14:20.661Z,10.63
2022-11-05T20:16:48.122Z,8.45
2022-11-05T20:19:16.182Z,9.30
2022-11-05T20:21:44.373Z,8.98
2022-11-05T20:24:13.269Z,9.05
2022-11-05T20:26:42.882Z,13.75
2022-11-05T20:29:11.035Z,12.73
2022-11-05T20:31:42.124Z,10.73
2022-11-05T20:34:09.328Z,14.85
2022-11-05T20:36:36.625Z,12.13
2022-11-05T20:39:04.421Z,12.68
2022-11-05T20:41:35.457Z,10.25
2022-11-05T20:44:06.119Z,14.60
2022-11-05T20:46:36.331Z,13.75
2022-11-05T20:49:04.013Z,8.65
2022-11-05T20:51:37.648Z,11.90
2022-11-05T20:54:05.338Z,13.02
2022-11-05T20:56:34.913Z,11.68
2022-11-05T20:59:02.898Z,12.27
2022-11-05T21:01:39.873Z,7.80
2022-11-05T21:04:10.120Z,9.35
2022-11-05T21:06:38.119Z,12.70
2022-11-05T21:09:06.205Z,12.57
2022-11-05T21:11:53.867Z,8.70
2022-11-05T21:14:21.589Z,7.97
2022-11-05T21:16:48.959Z,11.15
2022-11-05T21:19:16.087Z,11.88
2022-11-05T21:21:43.459Z,16.15
2022-11-05T21:24:10.583Z,14.02
2022-11-05T21:26:37.950Z,10.85
2022-11-05T21:29:04.938Z,13.20
2022-11-05T21:31:32.348Z,9.50
2022-11-05T21:34:00.342Z,9.27
2022-11-05T21:36:27.783Z,12.52
2022-11-05T21:38:55.347Z,9.23
2022-11-05T21:41:22.845Z,10.45
2022-11-05T21:43:50.067Z,10.15
2022-11-05T21:46:22.754Z,9.10
2022-11-05T21:48:52.894Z,11.30
2022-11-05T21:51:38.762Z,8.95
2022-11-05T21:54:24.531Z,11.55
2022-11-05T21:57:11.132Z,7.68
2022-11-05T21:59:50.155Z,11.60
2022-11-05T22:02:19.032Z,15.40
2022-11-05T22:04:49.116Z,9.25
2022-11-05T22:07:19.297Z,14.00
2022-11-05T22:09:46.621Z,16.23
2022-11-05T22:12:16.855Z,13.18
2022-11-05T22:14:44.180Z,12.65
2022-11-05T22:17:12.365Z,11.80
2022-11-05T22:19:41.806Z,14.23
2022-11-05T22:22:09.877Z,6.97
2022-11-05T22:24:40.819Z,8.63
2022-11-05T22:27:18.539Z,17.63
2022-11-05T22:29:46.170Z,13.65
2022-11-05T22:32:15.498Z,10.50
2022-11-05T22:34:43.140Z,11.55
2022-11-05T22:37:12.559Z,11.77
2022-11-05T22:39:39.897Z,11.15
2022-11-05T22:42:08.794Z,12.35
2022-11-05T22:44:36.897Z,9.65
2022-11-05T22:47:04.276Z,11.98
2022-11-05T22:49:31.984Z,7.93
2022-11-05T22:51:59.296Z,12.70
2022-11-05T22:54:27.121Z,19.08
2022-11-05T22:56:54.368Z,7.72
2022-11-05T22:59:21.680Z,11.65
2022-11-05T23:01:49.578Z,14.23
2022-11-05T23:04:17.004Z,10.40
2022-11-05T23:07:03.435Z,10.07
2022-11-05T23:09:52.165Z,11.43
2022-11-05T23:12:27.043Z,14.98
2022-11-05T23:14:54.845Z,8.23
2022-11-05T23:17:40.886Z,10.02
2022-11-05T23:20:30.874Z,10.52
2022-11-05T23:23:17.400Z,10.13
2022-11-05T23:25:44.493Z,12.80
2022-11-05T23:28:12.465Z,11.57
2022-11-05T23:31:06.163Z,10.35
2022-11-05T23:33:34.751Z,9.52
2022-11-05T23:36:21.375Z,12.18
2022-11-05T23:38:50.926Z,11.68
2022-11-05T23:41:36.535Z,9.88
2022-11-05T23:44:22.645Z,10.20
2022-11-05T23:47:09.139Z,7.63
2022-11-05T23:49:41.653Z,13.60
2022-11-05T23:52:08.780Z,14.68
2022-11-05T23:54:35.958Z,12.90
2022-11-05T23:57:03.416Z,12.90
2022-11-05T23:59:30.513Z,11.00
